Time;durP1;ratioP1;P1;durP2;ratioP2;P2;SDS_P1;SDS_P2;PMS_P1;PMS_P2;Temp;Humidity;BMP_temperature;BMP_pressure;BME280_temperature;BME280_humidity;BME280_pressure;Samples;Min_cycle;Max_cycle;Signal;HPM_P1;HPM_P2
2022/11/24 00:00:05;;;;;;;36.63;13.30;;;;;;;;;;5073333;28;20030;-62
2022/11/24 00:02:30;;;;;;;27.87;12.17;;;;;;;;;;5072140;28;20134;-61
2022/11/24 00:04:55;;;;;;;29.40;13.63;;;;;;;;;;5082222;28;20027;-62
2022/11/24 00:07:21;;;;;;;29.27;13.13;;;;;;;;;;5065444;28;20360;-62
2022/11/24 00:09:46;;;;;;;32.90;14.37;;;;;;;;;;5065799;28;20481;-62
2022/11/24 00:12:11;;;;;;;31.67;14.63;;;;;;;;;;5070100;28;20027;-62
2022/11/24 00:14:36;;;;;;;30.77;14.53;;;;;;;;;;5073168;28;20032;-62
2022/11/24 00:17:02;;;;;;;33.67;15.47;;;;;;;;;;5073382;28;20471;-61
2022/11/24 00:19:27;;;;;;;33.90;14.70;;;;;;;;;;5072567;28;20494;-62
2022/11/24 00:21:52;;;;;;;38.03;15.20;;;;;;;;;;5073562;28;20403;-62
2022/11/24 00:24:17;;;;;;;33.43;14.70;;;;;;;;;;5073167;28;20027;-63
2022/11/24 00:26:43;;;;;;;36.37;16.23;;;;;;;;;;5072509;28;20082;-62
2022/11/24 00:29:08;;;;;;;40.90;15.90;;;;;;;;;;5069693;28;20043;-62
2022/11/24 00:31:35;;;;;;;37.50;15.97;;;;;;;;;;5076520;28;20029;-61
2022/11/24 00:34:01;;;;;;;34.33;15.50;;;;;;;;;;5073913;28;20473;-61
2022/11/24 00:36:28;;;;;;;37.87;15.47;;;;;;;;;;5070121;28;20470;-62
2022/11/24 00:38:57;;;;;;;34.50;15.40;;;;;;;;;;5071710;28;20029;-62
2022/11/24 00:41:23;;;;;;;36.93;16.27;;;;;;;;;;5072209;28;20118;-61
2022/11/24 00:43:48;;;;;;;40.03;14.93;;;;;;;;;;5068072;28;20028;-61
2022/11/24 00:46:13;;;;;;;32.97;14.37;;;;;;;;;;5067484;28;20112;-61
2022/11/24 00:48:39;;;;;;;32.03;14.33;;;;;;;;;;5067538;28;20392;-62
2022/11/24 00:51:05;;;;;;;31.40;13.93;;;;;;;;;;5075199;28;20103;-61
2022/11/24 00:53:30;;;;;;;35.00;14.20;;;;;;;;;;5069916;28;20428;-62
2022/11/24 00:55:56;;;;;;;27.03;12.83;;;;;;;;;;5074050;28;20044;-63
2022/11/24 00:58:22;;;;;;;34.63;13.23;;;;;;;;;;5073679;28;20099;-62
2022/11/24 01:00:47;;;;;;;37.93;13.43;;;;;;;;;;5072850;28;20037;-62
2022/11/24 01:03:13;;;;;;;29.53;12.50;;;;;;;;;;5069057;28;20021;-62
2022/11/24 01:05:39;;;;;;;26.17;13.07;;;;;;;;;;5071693;28;20105;-62
2022/11/24 01:08:05;;;;;;;30.70;13.50;;;;;;;;;;5070657;28;20024;-61
2022/11/24 01:10:30;;;;;;;27.17;13.30;;;;;;;;;;5068977;28;20039;-62
2022/11/24 01:12:55;;;;;;;31.37;13.00;;;;;;;;;;5074551;28;20051;-62
2022/11/24 01:15:21;;;;;;;36.70;12.60;;;;;;;;;;5072751;28;20024;-61
2022/11/24 01:17:46;;;;;;;32.53;13.70;;;;;;;;;;5071647;28;20101;-61
2022/11/24 01:20:11;;;;;;;40.57;13.77;;;;;;;;;;5072003;28;20028;-62
2022/11/24 01:22:43;;;;;;;45.20;14.67;;;;;;;;;;5071310;28;20014;-62
2022/11/24 01:25:09;;;;;;;39.70;15.07;;;;;;;;;;5071685;28;20013;-62
2022/11/24 01:27:34;;;;;;;39.27;14.77;;;;;;;;;;5068554;28;20024;-62
2022/11/24 01:29:59;;;;;;;40.13;16.40;;;;;;;;;;5073976;28;20382;-62
2022/11/24 01:32:24;;;;;;;43.73;16.20;;;;;;;;;;5071690;28;20028;-61
2022/11/24 01:34:50;;;;;;;44.37;16.53;;;;;;;;;;5071435;28;20020;-62
2022/11/24 01:37:15;;;;;;;52.33;17.93;;;;;;;;;;5071633;28;20019;-62
2022/11/24 01:39:40;;;;;;;47.40;17.23;;;;;;;;;;5071220;28;20431;-62
2022/11/24 01:42:06;;;;;;;54.97;19.30;;;;;;;;;;5070246;28;20021;-62
2022/11/24 01:44:31;;;;;;;50.10;18.13;;;;;;;;;;5076247;28;20019;-63
2022/11/24 01:47:04;;;;;;;56.93;19.63;;;;;;;;;;5074237;28;20036;-61
2022/11/24 01:49:32;;;;;;;47.20;18.30;;;;;;;;;;5070303;28;20534;-62
2022/11/24 01:52:00;;;;;;;53.70;19.00;;;;;;;;;;5070504;28;20103;-63
2022/11/24 01:54:30;;;;;;;50.47;18.50;;;;;;;;;;5052357;28;20043;-62
2022/11/24 01:56:57;;;;;;;56.93;18.60;;;;;;;;;;5067666;28;20023;-61
2022/11/24 01:59:23;;;;;;;56.73;19.20;;;;;;;;;;5069754;28;20012;-62
2022/11/24 02:01:50;;;;;;;62.13;19.77;;;;;;;;;;5073054;28;20106;-62
2022/11/24 02:04:16;;;;;;;63.80;20.37;;;;;;;;;;5072333;28;20460;-62
2022/11/24 02:06:44;;;;;;;71.37;20.90;;;;;;;;;;5072701;28;20439;-62
2022/11/24 02:09:16;;;;;;;71.47;21.40;;;;;;;;;;5069620;28;20103;-62
2022/11/24 02:11:41;;;;;;;66.77;21.43;;;;;;;;;;5069598;28;20020;-62
2022/11/24 02:14:08;;;;;;;74.33;21.53;;;;;;;;;;5072938;28;20024;-62
2022/11/24 02:16:34;;;;;;;72.90;23.03;;;;;;;;;;5071309;28;20021;-62
2022/11/24 02:19:00;;;;;;;79.07;23.70;;;;;;;;;;5068770;28;20396;-62
2022/11/24 02:21:26;;;;;;;73.00;22.23;;;;;;;;;;5072196;28;20024;-62
2022/11/24 02:23:51;;;;;;;76.67;23.93;;;;;;;;;;5074085;28;20032;-62
2022/11/24 02:26:16;;;;;;;77.30;22.73;;;;;;;;;;5072349;28;20035;-62
2022/11/24 02:28:41;;;;;;;81.30;22.90;;;;;;;;;;5068358;28;20025;-63
2022/11/24 02:31:07;;;;;;;75.33;23.40;;;;;;;;;;5070524;28;20016;-61
2022/11/24 02:33:33;;;;;;;80.07;23.07;;;;;;;;;;5072492;28;20023;-62
2022/11/24 02:35:58;;;;;;;87.77;24.73;;;;;;;;;;5071481;28;20766;-62
2022/11/24 02:38:33;;;;;;;85.23;24.00;;;;;;;;;;5072726;28;20468;-62
2022/11/24 02:41:00;;;;;;;83.00;23.30;;;;;;;;;;5071864;28;20020;-62
2022/11/24 02:43:27;;;;;;;86.10;23.57;;;;;;;;;;5072250;28;20019;-61
2022/11/24 02:45:52;;;;;;;92.23;24.00;;;;;;;;;;5070716;28;20021;-62
2022/11/24 02:48:18;;;;;;;98.37;25.50;;;;;;;;;;5072756;28;20038;-62
2022/11/24 02:50:43;;;;;;;87.80;25.13;;;;;;;;;;5069774;28;20029;-62
2022/11/24 02:53:08;;;;;;;88.20;24.33;;;;;;;;;;5078313;28;20079;-65
2022/11/24 02:55:33;;;;;;;94.30;25.27;;;;;;;;;;5073258;28;20032;-62
2022/11/24 02:57:59;;;;;;;98.87;26.17;;;;;;;;;;5072456;28;20078;-62
2022/11/24 03:00:24;;;;;;;104.37;25.60;;;;;;;;;;5064815;28;20024;-62
2022/11/24 03:02:49;;;;;;;87.87;25.00;;;;;;;;;;5070102;28;20031;-62
2022/11/24 03:05:14;;;;;;;90.17;24.87;;;;;;;;;;5077018;28;20464;-62
2022/11/24 03:07:40;;;;;;;96.57;24.27;;;;;;;;;;5069288;28;20047;-66
2022/11/24 03:10:05;;;;;;;90.90;24.13;;;;;;;;;;5069681;28;20024;-62
2022/11/24 03:12:30;;;;;;;96.07;24.03;;;;;;;;;;5068021;28;20665;-62
2022/11/24 03:14:56;;;;;;;90.40;24.87;;;;;;;;;;5070074;28;20030;-62
2022/11/24 03:17:21;;;;;;;100.73;26.40;;;;;;;;;;5069411;28;20155;-62
2022/11/24 03:19:46;;;;;;;93.60;23.90;;;;;;;;;;5070550;28;20020;-62
2022/11/24 03:22:12;;;;;;;89.53;24.40;;;;;;;;;;5070381;28;20015;-62
2022/11/24 03:24:39;;;;;;;86.43;22.00;;;;;;;;;;5070040;28;20116;-62
2022/11/24 03:27:04;;;;;;;95.37;25.43;;;;;;;;;;5072787;28;20024;-61
2022/11/24 03:29:30;;;;;;;92.87;24.27;;;;;;;;;;5070307;28;20119;-62
2022/11/24 03:31:55;;;;;;;101.37;25.03;;;;;;;;;;5065973;28;20047;-62
2022/11/24 03:34:20;;;;;;;96.97;23.50;;;;;;;;;;5069483;28;20058;-62
2022/11/24 03:36:45;;;;;;;93.37;23.73;;;;;;;;;;5070189;28;20032;-62
2022/11/24 03:39:11;;;;;;;85.20;22.23;;;;;;;;;;5070511;28;20024;-63
2022/11/24 03:41:36;;;;;;;87.60;21.53;;;;;;;;;;5071265;28;20099;-62
2022/11/24 03:44:01;;;;;;;87.80;22.80;;;;;;;;;;5065672;28;20016;-63
2022/11/24 03:46:26;;;;;;;90.60;21.83;;;;;;;;;;5073148;28;20024;-63
2022/11/24 03:48:52;;;;;;;82.90;21.10;;;;;;;;;;5066873;28;20043;-62
2022/11/24 03:51:17;;;;;;;89.33;22.00;;;;;;;;;;5067430;28;20492;-62
2022/11/24 03:53:42;;;;;;;85.27;22.00;;;;;;;;;;5070242;28;20514;-61
2022/11/24 03:56:07;;;;;;;93.10;22.20;;;;;;;;;;5075240;28;20506;-62
2022/11/24 03:58:33;;;;;;;95.00;22.93;;;;;;;;;;5071239;28;20419;-62
2022/11/24 04:00:58;;;;;;;83.57;21.97;;;;;;;;;;5073153;28;20016;-62
2022/11/24 04:03:23;;;;;;;85.20;21.53;;;;;;;;;;5071465;28;20062;-62
2022/11/24 04:05:48;;;;;;;82.40;21.50;;;;;;;;;;5073069;28;20095;-61
2022/11/24 04:08:14;;;;;;;86.10;22.70;;;;;;;;;;5073815;28;20131;-62
2022/11/24 04:10:40;;;;;;;93.20;21.90;;;;;;;;;;5072517;28;20022;-61
2022/11/24 04:13:13;;;;;;;82.97;20.77;;;;;;;;;;5072726;28;20419;-62
2022/11/24 04:15:39;;;;;;;86.60;21.83;;;;;;;;;;5075827;28;20032;-62
2022/11/24 04:18:04;;;;;;;77.03;21.03;;;;;;;;;;5071866;28;20096;-62
2022/11/24 04:20:30;;;;;;;76.83;20.83;;;;;;;;;;5072550;28;20104;-62
2022/11/24 04:22:55;;;;;;;72.07;20.20;;;;;;;;;;5074518;28;20024;-62
2022/11/24 04:25:20;;;;;;;86.20;21.60;;;;;;;;;;5076835;28;20034;-62
2022/11/24 04:27:49;;;;;;;88.07;21.03;;;;;;;;;;5070322;28;20051;-62
2022/11/24 04:30:14;;;;;;;85.27;22.10;;;;;;;;;;5070798;28;20012;-63
2022/11/24 04:32:39;;;;;;;88.53;22.73;;;;;;;;;;5073549;28;20059;-62
2022/11/24 04:35:05;;;;;;;85.33;21.57;;;;;;;;;;5074366;28;20099;-62
2022/11/24 04:37:30;;;;;;;83.97;20.73;;;;;;;;;;5075700;28;20082;-62
2022/11/24 04:39:55;;;;;;;73.83;19.33;;;;;;;;;;5073918;28;20515;-62
2022/11/24 04:42:20;;;;;;;83.43;19.73;;;;;;;;;;5071210;28;20464;-63
2022/11/24 04:44:46;;;;;;;84.70;19.30;;;;;;;;;;5072538;28;20472;-62
2022/11/24 04:47:21;;;;;;;79.87;19.83;;;;;;;;;;5072193;28;20487;-62
2022/11/24 04:49:46;;;;;;;81.70;20.30;;;;;;;;;;5070768;28;20035;-62
2022/11/24 04:52:12;;;;;;;81.93;19.33;;;;;;;;;;5068545;28;20021;-63
2022/11/24 04:54:37;;;;;;;70.47;17.67;;;;;;;;;;5077881;28;20101;-61
2022/11/24 04:57:02;;;;;;;74.43;19.93;;;;;;;;;;5076421;28;20384;-62
2022/11/24 04:59:27;;;;;;;67.30;16.80;;;;;;;;;;5071500;28;20016;-62
2022/11/24 05:01:53;;;;;;;60.93;15.93;;;;;;;;;;5068800;28;20384;-62
2022/11/24 05:04:20;;;;;;;66.33;16.40;;;;;;;;;;5069901;28;20051;-62
2022/11/24 05:06:45;;;;;;;64.50;16.00;;;;;;;;;;5072177;28;20033;-62
2022/11/24 05:09:12;;;;;;;69.53;17.77;;;;;;;;;;5071270;28;20388;-62
2022/11/24 05:11:38;;;;;;;66.27;16.30;;;;;;;;;;5073910;28;20032;-62
2022/11/24 05:14:03;;;;;;;63.03;16.43;;;;;;;;;;5071588;28;20031;-62
2022/11/24 05:16:28;;;;;;;69.00;15.53;;;;;;;;;;5071585;28;20021;-61
2022/11/24 05:18:53;;;;;;;65.63;15.73;;;;;;;;;;5071689;28;20017;-62
2022/11/24 05:21:18;;;;;;;61.97;15.43;;;;;;;;;;5075667;28;20115;-62
2022/11/24 05:23:44;;;;;;;63.40;16.33;;;;;;;;;;5071922;28;20420;-62
2022/11/24 05:26:09;;;;;;;58.97;16.40;;;;;;;;;;5071588;28;20494;-62
2022/11/24 05:28:34;;;;;;;60.87;15.80;;;;;;;;;;5075187;28;20424;-63
2022/11/24 05:31:00;;;;;;;62.87;17.00;;;;;;;;;;5053504;28;20511;-62
2022/11/24 05:33:27;;;;;;;63.90;17.17;;;;;;;;;;5073689;28;20020;-62
2022/11/24 05:35:52;;;;;;;77.83;17.23;;;;;;;;;;5069173;28;20107;-62
2022/11/24 05:38:18;;;;;;;64.83;17.17;;;;;;;;;;5074446;28;20117;-62
2022/11/24 05:40:43;;;;;;;66.77;18.50;;;;;;;;;;5070486;28;20426;-62
2022/11/24 05:43:12;;;;;;;71.07;16.43;;;;;;;;;;5073688;28;20087;-63
2022/11/24 05:45:37;;;;;;;61.70;16.67;;;;;;;;;;5071078;28;20430;-63
2022/11/24 05:48:04;;;;;;;68.47;18.23;;;;;;;;;;5076288;28;20016;-62
2022/11/24 05:50:29;;;;;;;64.17;16.23;;;;;;;;;;5070281;28;20705;-63
2022/11/24 05:52:54;;;;;;;61.13;16.40;;;;;;;;;;5067694;28;20028;-62
2022/11/24 05:55:19;;;;;;;57.00;15.90;;;;;;;;;;5069927;28;20028;-62
2022/11/24 05:57:45;;;;;;;59.93;14.57;;;;;;;;;;5070639;28;20035;-62
2022/11/24 06:00:10;;;;;;;64.70;15.67;;;;;;;;;;5069073;28;20024;-63
2022/11/24 06:02:35;;;;;;;63.37;14.77;;;;;;;;;;5082205;28;20063;-62
2022/11/24 06:05:00;;;;;;;54.37;13.90;;;;;;;;;;5092236;28;20468;-62
2022/11/24 06:07:26;;;;;;;51.73;13.57;;;;;;;;;;5076621;28;20100;-62
2022/11/24 06:09:51;;;;;;;57.17;14.07;;;;;;;;;;5060300;28;20096;-62
2022/11/24 06:12:16;;;;;;;53.93;13.53;;;;;;;;;;5060945;28;20013;-62
2022/11/24 06:14:41;;;;;;;57.07;12.40;;;;;;;;;;5069572;28;20040;-62
2022/11/24 06:17:08;;;;;;;49.57;12.87;;;;;;;;;;5064017;28;20017;-62
2022/11/24 06:19:34;;;;;;;54.87;12.37;;;;;;;;;;5072736;28;20028;-63
2022/11/24 06:21:59;;;;;;;54.80;12.67;;;;;;;;;;5078224;28;20861;-60
2022/11/24 06:24:24;;;;;;;47.63;12.00;;;;;;;;;;5078297;28;20029;-60
2022/11/24 06:26:49;;;;;;;50.20;11.37;;;;;;;;;;5072011;28;20063;-62
2022/11/24 06:29:14;;;;;;;55.27;12.17;;;;;;;;;;5091414;28;20027;-62
2022/11/24 06:31:40;;;;;;;51.83;11.50;;;;;;;;;;5092118;28;20466;-62
2022/11/24 06:34:06;;;;;;;52.60;10.37;;;;;;;;;;5074641;28;20111;-62
2022/11/24 06:36:31;;;;;;;47.60;10.03;;;;;;;;;;5088096;28;20035;-62
2022/11/24 06:38:56;;;;;;;42.23;9.70;;;;;;;;;;5067282;28;20468;-62
2022/11/24 06:41:22;;;;;;;51.73;10.43;;;;;;;;;;5061856;28;20459;-60
2022/11/24 06:43:47;;;;;;;58.73;10.00;;;;;;;;;;5063638;28;20028;-60
2022/11/24 06:46:12;;;;;;;47.30;10.13;;;;;;;;;;5069080;28;20024;-60
2022/11/24 06:48:37;;;;;;;50.07;9.80;;;;;;;;;;5068863;28;20514;-60
2022/11/24 06:51:04;;;;;;;52.90;9.33;;;;;;;;;;5065261;28;20104;-62
2022/11/24 06:53:30;;;;;;;41.33;10.00;;;;;;;;;;5071102;28;20140;-62
2022/11/24 06:55:59;;;;;;;47.73;8.97;;;;;;;;;;5060517;28;20112;-62
2022/11/24 06:58:24;;;;;;;49.60;9.73;;;;;;;;;;5061125;28;20115;-62
2022/11/24 07:00:50;;;;;;;53.13;8.77;;;;;;;;;;5051685;28;20468;-62
2022/11/24 07:03:16;;;;;;;45.07;9.20;;;;;;;;;;5067524;28;20395;-62
2022/11/24 07:05:42;;;;;;;42.63;8.43;;;;;;;;;;5071567;28;20012;-62
2022/11/24 07:08:07;;;;;;;43.23;8.10;;;;;;;;;;5070726;28;20013;-60
2022/11/24 07:10:32;;;;;;;40.90;8.00;;;;;;;;;;5091190;28;20051;-61
2022/11/24 07:12:58;;;;;;;40.97;8.13;;;;;;;;;;5091631;28;20020;-61
2022/11/24 07:15:23;;;;;;;45.50;8.23;;;;;;;;;;5081567;28;20027;-61
2022/11/24 07:17:48;;;;;;;39.27;7.60;;;;;;;;;;5071401;28;20066;-61
2022/11/24 07:20:13;;;;;;;40.47;7.13;;;;;;;;;;5071504;28;20032;-61
2022/11/24 07:22:39;;;;;;;44.67;8.07;;;;;;;;;;5074060;28;20498;-60
2022/11/24 07:25:06;;;;;;;49.13;7.80;;;;;;;;;;5074913;28;20526;-60
2022/11/24 07:27:32;;;;;;;40.43;6.43;;;;;;;;;;5074838;28;20048;-61
2022/11/24 07:29:57;;;;;;;34.30;6.57;;;;;;;;;;5075177;28;20043;-61
2022/11/24 07:32:23;;;;;;;36.40;7.00;;;;;;;;;;5075036;28;20024;-61
2022/11/24 07:34:48;;;;;;;30.23;5.50;;;;;;;;;;5075011;28;20095;-61
2022/11/24 07:37:13;;;;;;;31.73;5.67;;;;;;;;;;5075360;28;20040;-61
2022/11/24 07:39:38;;;;;;;37.90;5.60;;;;;;;;;;5075260;28;20012;-61
2022/11/24 07:42:04;;;;;;;30.90;5.27;;;;;;;;;;5074031;28;20353;-61
2022/11/24 07:44:29;;;;;;;36.63;5.67;;;;;;;;;;5074846;28;20098;-61
2022/11/24 07:46:54;;;;;;;30.73;4.80;;;;;;;;;;5074672;28;20107;-61
2022/11/24 07:49:20;;;;;;;37.03;5.40;;;;;;;;;;5074815;28;20028;-61
2022/11/24 07:51:45;;;;;;;25.07;4.73;;;;;;;;;;5075032;28;20028;-61
2022/11/24 07:54:10;;;;;;;39.93;5.67;;;;;;;;;;5071742;28;20025;-61
2022/11/24 07:56:35;;;;;;;23.27;4.30;;;;;;;;;;5074944;28;20012;-61
2022/11/24 07:59:01;;;;;;;23.43;4.00;;;;;;;;;;5074235;28;20021;-61
2022/11/24 08:01:26;;;;;;;25.90;4.97;;;;;;;;;;5073115;28;20357;-61
2022/11/24 08:03:52;;;;;;;26.37;4.20;;;;;;;;;;5074535;28;20048;-61
2022/11/24 08:06:17;;;;;;;28.80;4.17;;;;;;;;;;5074690;28;20483;-61
2022/11/24 08:08:43;;;;;;;21.43;4.20;;;;;;;;;;5074218;28;20020;-61
2022/11/24 08:11:12;;;;;;;31.97;4.40;;;;;;;;;;5074332;28;20083;-61
2022/11/24 08:13:37;;;;;;;29.10;4.40;;;;;;;;;;5074481;28;20361;-61
2022/11/24 08:16:04;;;;;;;24.93;4.10;;;;;;;;;;5073742;28;20017;-61
2022/11/24 08:18:29;;;;;;;28.87;4.53;;;;;;;;;;5074223;28;20020;-60
2022/11/24 08:20:56;;;;;;;29.47;4.10;;;;;;;;;;5074256;28;20012;-61
2022/11/24 08:23:21;;;;;;;24.87;4.43;;;;;;;;;;5079543;28;20096;-61
2022/11/24 08:25:46;;;;;;;29.63;4.27;;;;;;;;;;5082619;28;20099;-61
2022/11/24 08:28:12;;;;;;;31.00;5.23;;;;;;;;;;5074237;28;20088;-61
2022/11/24 08:30:37;;;;;;;24.87;5.00;;;;;;;;;;5074139;28;20048;-61
2022/11/24 08:33:02;;;;;;;32.40;4.70;;;;;;;;;;5073049;28;20056;-61
2022/11/24 08:35:28;;;;;;;28.10;4.90;;;;;;;;;;5091580;28;20032;-60
2022/11/24 08:37:53;;;;;;;25.30;4.37;;;;;;;;;;5092918;28;20475;-61
2022/11/24 08:40:18;;;;;;;19.83;4.03;;;;;;;;;;5094217;28;20047;-61
2022/11/24 08:42:44;;;;;;;30.60;4.80;;;;;;;;;;5078316;28;20091;-61
2022/11/24 08:45:09;;;;;;;21.40;4.60;;;;;;;;;;5073750;28;20058;-61
2022/11/24 08:47:34;;;;;;;23.63;4.03;;;;;;;;;;5073826;28;20020;-61
2022/11/24 08:49:59;;;;;;;24.17;4.20;;;;;;;;;;5073085;28;20495;-61
2022/11/24 08:52:25;;;;;;;25.43;4.20;;;;;;;;;;5073579;28;20025;-61
2022/11/24 08:54:50;;;;;;;28.83;4.53;;;;;;;;;;5073612;28;20020;-61
2022/11/24 08:57:15;;;;;;;20.63;3.90;;;;;;;;;;5073595;28;20017;-61
2022/11/24 08:59:40;;;;;;;21.57;3.70;;;;;;;;;;5073615;28;20024;-61
2022/11/24 09:02:09;;;;;;;19.87;3.50;;;;;;;;;;5067095;28;20564;-61
2022/11/24 09:04:34;;;;;;;17.47;3.67;;;;;;;;;;5059721;28;20028;-61
2022/11/24 09:07:00;;;;;;;20.63;4.00;;;;;;;;;;5077208;28;20321;-60
2022/11/24 09:09:25;;;;;;;27.60;4.43;;;;;;;;;;5073082;28;20027;-61
2022/11/24 09:11:50;;;;;;;28.73;5.00;;;;;;;;;;5073458;28;20028;-61
2022/11/24 09:14:15;;;;;;;23.30;4.20;;;;;;;;;;5072884;28;20016;-61
2022/11/24 09:16:41;;;;;;;19.50;3.60;;;;;;;;;;5073227;28;20024;-61
2022/11/24 09:19:09;;;;;;;18.47;3.83;;;;;;;;;;5069846;28;20048;-61
2022/11/24 09:21:36;;;;;;;23.80;4.23;;;;;;;;;;5072746;28;20032;-61
2022/11/24 09:24:01;;;;;;;25.10;4.13;;;;;;;;;;5072240;28;20170;-60
2022/11/24 09:26:28;;;;;;;21.17;4.23;;;;;;;;;;5072625;28;20104;-61
2022/11/24 09:28:54;;;;;;;23.30;4.60;;;;;;;;;;5073075;28;20068;-61
2022/11/24 09:31:21;;;;;;;23.90;3.90;;;;;;;;;;5072801;28;20401;-61
2022/11/24 09:33:46;;;;;;;20.67;4.07;;;;;;;;;;5072546;28;20028;-61
2022/11/24 09:36:11;;;;;;;22.43;4.40;;;;;;;;;;5072731;28;20028;-62
2022/11/24 09:38:37;;;;;;;17.43;3.60;;;;;;;;;;5072736;28;20021;-61
2022/11/24 09:41:21;;;;;;;24.17;4.23;;;;;;;;;;5071641;28;20013;-61
2022/11/24 09:43:55;;;;;;;22.33;4.53;;;;;;;;;;5072774;28;20031;-60
2022/11/24 09:46:34;;;;;;;28.00;5.67;;;;;;;;;;5072266;28;20028;-61
2022/11/24 09:49:01;;;;;;;21.93;4.87;;;;;;;;;;5069311;28;20117;-61
2022/11/24 09:51:29;;;;;;;22.10;4.07;;;;;;;;;;5072286;28;20040;-61
2022/11/24 09:54:14;;;;;;;18.30;4.30;;;;;;;;;;5072394;28;20094;-61
2022/11/24 09:56:41;;;;;;;16.87;4.27;;;;;;;;;;5067735;28;20040;-61
2022/11/24 09:59:09;;;;;;;17.43;3.87;;;;;;;;;;5072142;28;20023;-61
2022/11/24 10:01:38;;;;;;;19.63;4.63;;;;;;;;;;5069662;28;20019;-61
2022/11/24 10:04:11;;;;;;;19.57;4.60;;;;;;;;;;5052361;28;20071;-61
2022/11/24 10:06:43;;;;;;;19.60;4.30;;;;;;;;;;5052303;28;20020;-61
2022/11/24 10:09:31;;;;;;;17.03;3.70;;;;;;;;;;5052274;28;20059;-61
2022/11/24 10:12:14;;;;;;;17.60;3.47;;;;;;;;;;5052377;28;20020;-61
2022/11/24 10:14:40;;;;;;;14.93;3.43;;;;;;;;;;5064027;28;20107;-62
2022/11/24 10:17:08;;;;;;;18.50;3.67;;;;;;;;;;5072259;28;20048;-62
2022/11/24 10:19:44;;;;;;;15.83;3.83;;;;;;;;;;5071692;28;20021;-62
2022/11/24 10:22:22;;;;;;;10.40;3.30;;;;;;;;;;5071735;28;20013;-62
2022/11/24 10:24:47;;;;;;;13.30;3.43;;;;;;;;;;5071522;28;20017;-61
2022/11/24 10:27:16;;;;;;;13.40;3.30;;;;;;;;;;5084994;28;20012;-61
2022/11/24 10:29:41;;;;;;;12.27;3.23;;;;;;;;;;5051899;28;20017;-61
2022/11/24 10:32:27;;;;;;;18.20;4.13;;;;;;;;;;5067778;28;20017;-61
2022/11/24 10:34:53;;;;;;;18.47;3.67;;;;;;;;;;5071074;28;20044;-61
2022/11/24 10:37:27;;;;;;;12.80;3.63;;;;;;;;;;5071854;28;20019;-61
2022/11/24 10:40:02;;;;;;;13.20;3.40;;;;;;;;;;5071849;28;20470;-62
2022/11/24 10:42:39;;;;;;;14.43;3.87;;;;;;;;;;5071673;28;20487;-61
2022/11/24 10:45:11;;;;;;;14.03;3.83;;;;;;;;;;5071710;28;20082;-61
2022/11/24 10:47:37;;;;;;;15.03;3.80;;;;;;;;;;5071097;28;20020;-62
2022/11/24 10:50:11;;;;;;;15.70;4.00;;;;;;;;;;5071443;28;20543;-61
2022/11/24 10:52:40;;;;;;;15.83;4.17;;;;;;;;;;5071469;28;20017;-61
2022/11/24 10:55:05;;;;;;;13.30;3.67;;;;;;;;;;5071991;28;20044;-61
2022/11/24 10:57:32;;;;;;;12.70;4.07;;;;;;;;;;5071277;28;20476;-61
2022/11/24 10:59:57;;;;;;;19.80;4.00;;;;;;;;;;5072281;28;20040;-62
2022/11/24 11:02:38;;;;;;;10.90;3.03;;;;;;;;;;5069204;28;20503;-62
2022/11/24 11:05:22;;;;;;;12.88;3.35;;;;;;;;;;5065071;28;20020;-63
2022/11/24 11:07:47;;;;;;;9.13;3.40;;;;;;;;;;5095704;28;20046;-62
2022/11/24 11:10:18;;;;;;;9.13;3.20;;;;;;;;;;5098038;28;20020;-62
2022/11/24 11:12:44;;;;;;;9.87;3.47;;;;;;;;;;5098265;28;20112;-63
2022/11/24 11:15:23;;;;;;;9.63;3.73;;;;;;;;;;5098316;28;20107;-62
2022/11/24 11:17:51;;;;;;;12.30;3.47;;;;;;;;;;5097787;28;20027;-62
2022/11/24 11:20:17;;;;;;;11.80;3.37;;;;;;;;;;5098121;28;20016;-62
2022/11/24 11:22:44;;;;;;;12.53;3.43;;;;;;;;;;5080811;28;20013;-62
2022/11/24 11:25:09;;;;;;;12.70;3.90;;;;;;;;;;5077932;28;20055;-62
2022/11/24 11:27:34;;;;;;;9.50;3.47;;;;;;;;;;5077693;28;20028;-62
2022/11/24 11:30:20;;;;;;;10.80;2.90;;;;;;;;;;5060031;28;20021;-62
2022/11/24 11:33:08;;;;;;;11.03;3.80;;;;;;;;;;5077675;28;20024;-62
2022/11/24 11:35:35;;;;;;;12.97;3.60;;;;;;;;;;5076087;28;20033;-62
2022/11/24 11:38:01;;;;;;;12.27;3.33;;;;;;;;;;5077847;28;20063;-62
2022/11/24 11:40:28;;;;;;;10.47;3.27;;;;;;;;;;5076815;28;20020;-63
2022/11/24 11:42:56;;;;;;;6.43;3.00;;;;;;;;;;5077578;28;20463;-62
2022/11/24 11:45:33;;;;;;;10.20;3.43;;;;;;;;;;5077531;28;20024;-62
2022/11/24 11:47:59;;;;;;;8.47;2.80;;;;;;;;;;5077489;28;20082;-62
2022/11/24 11:50:27;;;;;;;9.30;3.30;;;;;;;;;;5074240;28;20103;-62
2022/11/24 11:52:55;;;;;;;9.47;2.67;;;;;;;;;;5077522;28;20013;-62
2022/11/24 11:55:26;;;;;;;7.17;2.63;;;;;;;;;;5076712;28;20032;-62
2022/11/24 11:58:05;;;;;;;6.68;2.63;;;;;;;;;;5077820;28;20132;-62
2022/11/24 12:00:32;;;;;;;7.13;2.87;;;;;;;;;;5076812;28;20028;-61
2022/11/24 12:03:24;;;;;;;10.00;3.53;;;;;;;;;;5061756;28;20025;-60
2022/11/24 12:05:54;;;;;;;10.27;3.60;;;;;;;;;;5057622;28;20358;-62
2022/11/24 12:08:19;;;;;;;7.73;2.80;;;;;;;;;;5057588;28;20484;-62
2022/11/24 12:10:49;;;;;;;8.23;2.73;;;;;;;;;;5057728;28;20056;-62
2022/11/24 12:13:33;;;;;;;9.83;2.93;;;;;;;;;;5063450;28;20155;-62
2022/11/24 12:16:07;;;;;;;10.57;3.23;;;;;;;;;;5074639;28;20033;-60
2022/11/24 12:18:41;;;;;;;7.87;3.37;;;;;;;;;;5074732;28;20027;-60
2022/11/24 12:21:06;;;;;;;7.60;3.10;;;;;;;;;;5075777;28;20018;-61
2022/11/24 12:23:42;;;;;;;9.27;2.90;;;;;;;;;;5094105;28;20463;-61
2022/11/24 12:26:13;;;;;;;6.93;2.67;;;;;;;;;;5093599;28;20027;-61
2022/11/24 12:28:59;;;;;;;6.70;2.90;;;;;;;;;;5094494;28;20027;-61
2022/11/24 12:31:24;;;;;;;8.90;3.50;;;;;;;;;;5033179;28;20525;-61
2022/11/24 12:33:52;;;;;;;9.27;3.50;;;;;;;;;;5053949;28;20056;-62
2022/11/24 12:36:36;;;;;;;9.93;3.07;;;;;;;;;;5053978;28;20037;-61
2022/11/24 12:39:24;;;;;;;8.73;3.47;;;;;;;;;;5053765;28;20024;-61
2022/11/24 12:42:00;;;;;;;11.50;3.23;;;;;;;;;;5061750;28;20100;-61
2022/11/24 12:44:25;;;;;;;5.47;2.70;;;;;;;;;;5074136;28;20016;-61
2022/11/24 12:46:55;;;;;;;9.97;3.53;;;;;;;;;;5073197;28;20480;-61
2022/11/24 12:49:26;;;;;;;7.97;3.20;;;;;;;;;;5073730;28;20107;-61
2022/11/24 12:52:00;;;;;;;9.38;3.42;;;;;;;;;;5073940;28;20512;-62
2022/11/24 12:54:28;;;;;;;9.97;3.87;;;;;;;;;;5073469;28;20074;-61
2022/11/24 12:57:04;;;;;;;9.30;3.47;;;;;;;;;;5073827;28;20427;-61
2022/11/24 12:59:56;;;;;;;9.47;3.60;;;;;;;;;;5073390;28;20021;-61
2022/11/24 13:02:21;;;;;;;7.30;3.08;;;;;;;;;;5056033;28;20029;-61
2022/11/24 13:04:55;;;;;;;9.67;3.70;;;;;;;;;;5070123;28;20031;-61
2022/11/24 13:07:44;;;;;;;7.97;3.60;;;;;;;;;;5073554;28;20557;-61
2022/11/24 13:10:24;;;;;;;8.80;3.77;;;;;;;;;;5067483;28;20035;-61
2022/11/24 13:13:02;;;;;;;9.03;4.10;;;;;;;;;;5073575;28;20411;-61
2022/11/24 13:15:28;;;;;;;11.97;5.20;;;;;;;;;;5073073;28;20066;-61
2022/11/24 13:17:54;;;;;;;9.03;4.03;;;;;;;;;;5070168;28;20491;-61
2022/11/24 13:20:19;;;;;;;9.87;4.47;;;;;;;;;;5072601;28;20021;-61
2022/11/24 13:22:54;;;;;;;9.73;4.40;;;;;;;;;;5073093;28;20073;-61
2022/11/24 13:25:19;;;;;;;8.67;3.77;;;;;;;;;;5072849;28;20036;-62
2022/11/24 13:27:47;;;;;;;11.00;4.40;;;;;;;;;;5073134;28;20025;-60
2022/11/24 13:30:31;;;;;;;10.20;4.50;;;;;;;;;;5072923;28;20055;-62
2022/11/24 13:33:11;;;;;;;11.07;4.70;;;;;;;;;;5072772;28;20133;-61
2022/11/24 13:35:37;;;;;;;10.17;4.50;;;;;;;;;;5072698;28;20028;-61
2022/11/24 13:38:04;;;;;;;12.40;4.60;;;;;;;;;;5072156;28;20025;-61
2022/11/24 13:40:29;;;;;;;9.77;4.70;;;;;;;;;;5072853;28;20099;-61
2022/11/24 13:43:00;;;;;;;10.17;4.60;;;;;;;;;;5072742;28;20535;-61
2022/11/24 13:45:49;;;;;;;9.83;4.80;;;;;;;;;;5072452;28;20017;-61
2022/11/24 13:48:17;;;;;;;10.33;5.00;;;;;;;;;;5072588;28;20024;-61
2022/11/24 13:50:48;;;;;;;12.40;5.03;;;;;;;;;;5072731;28;20480;-61
2022/11/24 13:53:14;;;;;;;10.55;5.00;;;;;;;;;;5072577;28;20028;-62
2022/11/24 13:55:40;;;;;;;12.70;5.47;;;;;;;;;;5071563;28;20033;-61
2022/11/24 13:58:22;;;;;;;10.83;4.73;;;;;;;;;;5069079;28;20023;-61
2022/11/24 14:00:47;;;;;;;;;;;;;;;;;;5069711;28;20024;-61
2022/11/24 14:03:35;;;;;;;11.73;5.55;;;;;;;;;;5056411;28;19905;-62
2022/11/24 14:06:01;;;;;;;13.70;6.10;;;;;;;;;;5052036;28;20075;-61
2022/11/24 14:08:29;;;;;;;14.10;5.73;;;;;;;;;;5052051;28;20028;-61
2022/11/24 14:10:55;;;;;;;16.27;5.90;;;;;;;;;;5052024;28;20155;-62
2022/11/24 14:13:23;;;;;;;11.53;5.73;;;;;;;;;;5070150;28;20067;-62
2022/11/24 14:16:07;;;;;;;14.70;6.13;;;;;;;;;;5073383;28;20036;-61
2022/11/24 14:18:33;;;;;;;14.53;5.57;;;;;;;;;;5091154;28;20027;-61
2022/11/24 14:20:59;;;;;;;13.63;6.17;;;;;;;;;;5092425;28;20379;-61
2022/11/24 14:23:25;;;;;;;13.63;6.20;;;;;;;;;;5092237;28;20026;-61
2022/11/24 14:25:50;;;;;;;15.00;6.33;;;;;;;;;;5092453;28;20028;-61
2022/11/24 14:28:21;;;;;;;14.33;6.27;;;;;;;;;;5089801;28;20020;-61